Weather History for KPOE - December, 2013

Change the Weather History Date:

Thursday, December 5, 2013

  Actual Average Record
Temperature  
Mean Temperature 62 °F -  
Max Temperature 78 °F 61 °F 80 °F (1998)
Min Temperature 46 °F 42 °F 26 °F (2006)
Degree Days  
Heating Degree Days 3    
Growing Degree Days 12 (Base 50)    
Moisture  
Dew Point 64 °F    
Average Humidity 93    
Maximum Humidity 100    
Minimum Humidity 79    
Precipitation  
Precipitation 0.37 in - - ()
Sea Level Pressure  
Sea Level Pressure 29.92 in    
Wind  
Wind Speed 8 mph (SSW)    
Max Wind Speed 15 mph    
Max Gust Speed 21 mph    
Visibility 6 miles    
Events Fog , Rain    
Averages and records for this station are not official NWS values.
T = Trace of Precipitation, MM = Missing Value Source: NWS Daily Summary

Daily Weather History Graph

Daily Weather History Graph

Search for Another Location

Airport or City:

Trip Planner

Search our weather history database for the weather conditions in past years. The results will help you decide how hot, cold, wet, or windy it might be!

Date:

Astronomy

Dec. 05, 2013 Rise Set
Actual Time 6:56 AM CST 5:10 PM CST
Civil Twilight 6:30 AM CST 5:36 PM CST
Nautical Twilight 6:00 AM CST 6:06 PM CST
Astronomical Twilight 5:30 AM CST 6:36 PM CST
Moon 9:22 AM CST (12/5) 8:25 PM CST (12/5)
Length of Visible Light 11h 06m
Length of Day
10h 13m
Waxing Crescent, 11% of the Moon is Illuminated
Dec 5
Waxing Crescent
Dec 9
First Quarter
Dec 17
Full
Dec 25
Last Quarter
Jan 1
New

Hourly Weather History & Observations

Time (CST) Temp. Windchill Dew Point Humidity Pressure Visibility Wind Dir Wind Speed Gust Speed Precip Events Conditions
12:55 AM 73.0 °F - 70.0 °F 90% 29.86 in 9.0 mi South 9.2 mph - N/A   Overcast
1:55 AM 72.0 °F - 70.0 °F 93% 29.85 in 8.0 mi South 8.1 mph - N/A   Overcast
2:11 AM 73.4 °F - 69.8 °F 88% 29.85 in 8.0 mi South 11.5 mph 17.3 mph N/A   Overcast
2:28 AM 71.6 °F - 69.8 °F 94% 29.85 in 8.0 mi South 6.9 mph - N/A   Mostly Cloudy
2:55 AM 72.0 °F - 70.0 °F 93% 29.86 in 8.0 mi South 6.9 mph - N/A   Overcast
3:02 AM 71.6 °F - 69.8 °F 94% 29.85 in 8.0 mi South 8.1 mph - N/A   Overcast
3:34 AM 71.6 °F - 69.8 °F 94% 29.85 in 8.0 mi South 8.1 mph - N/A   Overcast
3:55 AM 73.0 °F - 70.0 °F 90% 29.86 in 7.0 mi South 9.2 mph - N/A   Overcast
4:55 AM 72.0 °F - 70.0 °F 93% 29.87 in 8.0 mi South 6.9 mph - N/A   Overcast
5:04 AM 71.6 °F - 69.8 °F 94% 29.87 in 8.0 mi South 6.9 mph - N/A   Overcast
5:55 AM 72.0 °F - 70.0 °F 93% 29.89 in 7.0 mi South 5.8 mph - N/A   Overcast
6:02 AM 71.6 °F - 69.8 °F 94% 29.89 in 7.0 mi South 5.8 mph - N/A   Overcast
6:09 AM 71.6 °F - 69.8 °F 94% 29.89 in 7.0 mi South 5.8 mph - 0.00 in Rain Light Rain
6:55 AM 72.0 °F - 70.0 °F 93% 29.91 in 8.0 mi South 6.9 mph - 0.00 in   Overcast
6:59 AM 71.6 °F - 69.8 °F 94% 29.90 in 8.0 mi South 8.1 mph - N/A   Overcast
7:29 AM 71.6 °F - 71.6 °F 100% 29.91 in 6.0 mi SSE 8.1 mph - N/A   Overcast
7:55 AM 72.0 °F - 71.1 °F 97% 29.93 in 6.0 mi South 3.5 mph - N/A   Overcast
8:02 AM 71.6 °F - 71.6 °F 100% 29.92 in 6.0 mi South 6.9 mph - N/A   Overcast
8:12 AM 71.6 °F - 71.6 °F 100% 29.93 in 6.0 mi South 6.9 mph - 0.00 in Rain Light Rain
8:19 AM 71.6 °F - 71.6 °F 100% 29.93 in 6.0 mi South 6.9 mph - 0.00 in   Overcast
8:38 AM 71.6 °F - 71.6 °F 100% 29.94 in 7.0 mi South 8.1 mph - 0.00 in   Overcast
8:55 AM 72.0 °F - 71.1 °F 97% 29.94 in 7.0 mi South 6.9 mph - 0.00 in Rain Light Rain
9:32 AM 73.4 °F - 71.6 °F 94% 29.95 in 9.0 mi South 6.9 mph - 0.01 in Rain Light Rain
9:55 AM 73.0 °F - 71.1 °F 93% 29.95 in 9.0 mi South 8.1 mph - 0.01 in   Overcast
10:02 AM 73.4 °F - 71.6 °F 94% 29.95 in 9.0 mi South 6.9 mph - N/A   Overcast
10:40 AM 73.4 °F - 71.6 °F 94% 29.95 in 2.5 mi South 5.8 mph - 0.04 in Rain Rain
10:44 AM 73.4 °F - 71.6 °F 94% 29.95 in 1.2 mi South 4.6 mph - 0.09 in Rain Heavy Rain
10:47 AM 73.4 °F - 71.6 °F 94% 29.95 in 0.8 mi Calm Calm - 0.18 in Rain Heavy Rain
10:55 AM 72.0 °F - 71.1 °F 97% 29.95 in 0.5 mi West 4.6 mph - 0.33 in Fog , Rain Heavy Rain
10:59 AM 71.6 °F - 71.6 °F 100% 29.94 in 1.0 mi South 5.8 mph - 0.00 in Rain Rain
11:03 AM 71.6 °F - 71.6 °F 100% 29.94 in 2.0 mi SSW 4.6 mph - 0.00 in Rain Light Rain
11:11 AM 71.6 °F - 71.6 °F 100% 29.94 in 4.0 mi WSW 9.2 mph - 0.00 in   Overcast
11:48 AM 73.4 °F - 71.6 °F 94% 29.92 in 5.0 mi WSW 9.2 mph - 0.01 in   Overcast
11:55 AM 73.9 °F - 72.0 °F 93% 29.92 in 5.0 mi WSW 9.2 mph - 0.01 in   Overcast
12:02 PM 73.4 °F - 71.6 °F 94% 29.92 in 6.0 mi South 5.8 mph - N/A   Overcast
12:41 PM 75.2 °F - 71.6 °F 89% 29.89 in 10.0 mi South 10.4 mph - N/A   Mostly Cloudy
12:51 PM 77.0 °F - 71.6 °F 83% 29.88 in 10.0 mi South 9.2 mph - N/A   Mostly Cloudy
12:55 PM 78.1 °F - 71.1 °F 79% 29.89 in 10.0 mi SSW 8.1 mph - N/A   Mostly Cloudy
1:55 PM 77.0 °F - 70.0 °F 79% 29.87 in 10.0 mi SSW 5.8 mph - N/A   Overcast
2:31 PM 66.2 °F - 62.6 °F 88% 29.88 in 8.0 mi NW 12.7 mph - N/A   Overcast
2:41 PM 64.4 °F - 60.8 °F 88% 29.88 in 7.0 mi NW 10.4 mph - 0.00 in Rain Light Rain
2:55 PM 63.0 °F - 59.0 °F 87% 29.89 in 8.0 mi NW 15.0 mph - 0.00 in   Overcast
3:02 PM 62.6 °F - 59.0 °F 88% 29.88 in 7.0 mi NNW 12.7 mph - 0.00 in Rain Light Rain
3:09 PM 62.6 °F - 59.0 °F 88% 29.88 in 6.0 mi North 10.4 mph - 0.00 in Rain Light Rain
3:55 PM 60.1 °F - 57.0 °F 90% 29.91 in 6.0 mi North 10.4 mph - 0.00 in   Overcast
4:02 PM 59.0 °F - 55.4 °F 88% 29.90 in 7.0 mi North 13.8 mph 18.4 mph N/A   Overcast
4:33 PM 57.2 °F - 53.6 °F 88% 29.92 in 7.0 mi North 11.5 mph - N/A   Overcast
4:55 PM 57.0 °F - 53.1 °F 87% 29.94 in 8.0 mi NNW 13.8 mph - N/A   Overcast
5:55 PM 54.0 °F - 51.1 °F 90% 29.94 in 8.0 mi North 11.5 mph - N/A   Overcast
6:02 PM 53.6 °F - 51.8 °F 94% 29.94 in 8.0 mi North 9.2 mph - N/A   Overcast
6:17 PM 53.6 °F - 51.8 °F 94% 29.94 in 8.0 mi North 9.2 mph - N/A   Overcast
6:45 PM 51.8 °F - 51.8 °F 100% 29.95 in 6.0 mi NNW 12.7 mph - N/A   Overcast
6:55 PM 52.0 °F - 51.1 °F 97% 29.96 in 5.0 mi North 12.7 mph 20.7 mph N/A   Overcast
7:55 PM 51.1 °F - 50.0 °F 96% 29.97 in 5.0 mi North 9.2 mph - N/A   Overcast
8:20 PM 51.8 °F - 50.0 °F 94% 29.97 in 4.0 mi NNW 10.4 mph - N/A   Overcast
8:55 PM 51.1 °F - 50.0 °F 96% 29.99 in 3.0 mi North 10.4 mph - 0.00 in Rain Light Rain
9:22 PM 51.8 °F - 50.0 °F 94% 29.98 in 5.0 mi North 9.2 mph - 0.01 in Rain Light Rain
9:55 PM 50.0 °F - 48.9 °F 96% 30.01 in 6.0 mi North 9.2 mph - 0.01 in Rain Light Rain
10:55 PM 48.9 °F - 48.0 °F 97% 30.01 in 8.0 mi North 5.8 mph - 0.00 in Rain Light Rain
11:50 PM 46.4 °F 41.5 °F 46.4 °F 100% 30.00 in 4.0 mi NNE 10.4 mph - 0.01 in   Overcast
11:55 PM 46.9 °F - 46.0 °F 97% 30.01 in 3.0 mi NNE 8.1 mph - 0.01 in   Overcast